Login to view Products
 
Sunday, May 19, 2019 (11:32 UTC)
Al Ain International Airport
ICAO: OMAL
IATA: AAN
  • METAR OMAL 191100Z 18017KT 5000 TS BLDU FEW040CB SCT045 31/17 Q1009 WS ALL RWY TEMPO VRB28G40KT 1500 TSRA=
  • TAF OMAL 191100Z 1912/2018 27010KT 8000 NSC PROB30 TEMPO 1912/1916 VRB22G38KT 1500 TSRA BLDU FEW045CB BECMG 1912/1914 09010KT BECMG 1921/1923 16013KT PROB30 TEMPO 2003/2006 18015G25KT 3000 BLDU BECMG 2008/2010 26010KT PROB30 TEMPO 2013/2016 VRB22G38KT 1500 TSRA BLDU FEW045CB BECMG 2016/2018 10008KT=
D:\Input Parser\Destinations\Final\11\OMALL12181100582717342.txt
1